sensor_id;sensor_type;location;lat;lon;timestamp;P1;durP1;ratioP1;P2;durP2;ratioP2
41141;SDS011;63666;52.284;20.890;2023-12-04T00:00:03;6.60;;;4.90;;
41141;SDS011;63666;52.284;20.890;2023-12-04T00:03:25;6.60;;;4.70;;
41141;SDS011;63666;52.284;20.890;2023-12-04T00:06:06;6.80;;;4.90;;
41141;SDS011;63666;52.284;20.890;2023-12-04T00:08:43;7.00;;;4.70;;
41141;SDS011;63666;52.284;20.890;2023-12-04T00:11:28;7.10;;;5.00;;
41141;SDS011;63666;52.284;20.890;2023-12-04T00:14:08;7.10;;;4.90;;
41141;SDS011;63666;52.284;20.890;2023-12-04T00:16:46;6.80;;;5.10;;
41141;SDS011;63666;52.284;20.890;2023-12-04T00:19:28;6.80;;;5.00;;
41141;SDS011;63666;52.284;20.890;2023-12-04T00:22:11;7.00;;;5.00;;
41141;SDS011;63666;52.284;20.890;2023-12-04T00:24:50;7.00;;;5.10;;
41141;SDS011;63666;52.284;20.890;2023-12-04T00:27:30;6.50;;;4.80;;
41141;SDS011;63666;52.284;20.890;2023-12-04T00:30:10;6.70;;;4.80;;
41141;SDS011;63666;52.284;20.890;2023-12-04T00:32:48;6.90;;;5.00;;
41141;SDS011;63666;52.284;20.890;2023-12-04T00:35:28;6.60;;;4.50;;
41141;SDS011;63666;52.284;20.890;2023-12-04T00:38:10;6.50;;;4.70;;
41141;SDS011;63666;52.284;20.890;2023-12-04T00:40:51;6.90;;;4.90;;
41141;SDS011;63666;52.284;20.890;2023-12-04T00:43:28;6.60;;;4.80;;
41141;SDS011;63666;52.284;20.890;2023-12-04T00:46:07;6.60;;;4.80;;
41141;SDS011;63666;52.284;20.890;2023-12-04T00:48:44;7.90;;;5.40;;
41141;SDS011;63666;52.284;20.890;2023-12-04T01:01:16;6.70;;;4.90;;
41141;SDS011;63666;52.284;20.890;2023-12-04T01:03:55;7.20;;;5.10;;
41141;SDS011;63666;52.284;20.890;2023-12-04T01:06:36;7.00;;;5.50;;
41141;SDS011;63666;52.284;20.890;2023-12-04T01:09:19;7.30;;;5.30;;
41141;SDS011;63666;52.284;20.890;2023-12-04T01:12:02;7.10;;;5.10;;
41141;SDS011;63666;52.284;20.890;2023-12-04T01:14:40;6.90;;;5.30;;
41141;SDS011;63666;52.284;20.890;2023-12-04T01:17:17;6.80;;;5.00;;
41141;SDS011;63666;52.284;20.890;2023-12-04T01:19:55;7.20;;;5.50;;
41141;SDS011;63666;52.284;20.890;2023-12-04T01:22:34;7.20;;;5.30;;
41141;SDS011;63666;52.284;20.890;2023-12-04T01:25:19;7.20;;;5.40;;
41141;SDS011;63666;52.284;20.890;2023-12-04T01:27:56;6.70;;;5.30;;
41141;SDS011;63666;52.284;20.890;2023-12-04T01:30:35;7.10;;;5.20;;
41141;SDS011;63666;52.284;20.890;2023-12-04T01:33:14;7.40;;;5.60;;
41141;SDS011;63666;52.284;20.890;2023-12-04T01:35:52;6.20;;;5.10;;
41141;SDS011;63666;52.284;20.890;2023-12-04T01:38:31;6.60;;;5.20;;
41141;SDS011;63666;52.284;20.890;2023-12-04T01:41:13;6.90;;;5.00;;
41141;SDS011;63666;52.284;20.890;2023-12-04T01:43:55;7.00;;;5.20;;
41141;SDS011;63666;52.284;20.890;2023-12-04T01:46:33;6.60;;;5.20;;
41141;SDS011;63666;52.284;20.890;2023-12-04T01:49:20;6.50;;;5.10;;
41141;SDS011;63666;52.284;20.890;2023-12-04T01:51:59;6.70;;;5.00;;
41141;SDS011;63666;52.284;20.890;2023-12-04T01:54:42;6.60;;;5.20;;
41141;SDS011;63666;52.284;20.890;2023-12-04T01:57:25;6.90;;;5.10;;
41141;SDS011;63666;52.284;20.890;2023-12-04T02:00:06;6.50;;;5.00;;
41141;SDS011;63666;52.284;20.890;2023-12-04T02:02:47;7.00;;;5.10;;
41141;SDS011;63666;52.284;20.890;2023-12-04T02:05:32;6.80;;;5.20;;
41141;SDS011;63666;52.284;20.890;2023-12-04T02:08:16;6.70;;;4.80;;
41141;SDS011;63666;52.284;20.890;2023-12-04T02:10:58;6.50;;;4.90;;
41141;SDS011;63666;52.284;20.890;2023-12-04T02:13:37;6.20;;;5.00;;
41141;SDS011;63666;52.284;20.890;2023-12-04T02:16:19;6.40;;;4.90;;
41141;SDS011;63666;52.284;20.890;2023-12-04T02:18:56;6.70;;;4.90;;
41141;SDS011;63666;52.284;20.890;2023-12-04T02:21:39;6.30;;;5.00;;
41141;SDS011;63666;52.284;20.890;2023-12-04T02:24:19;6.20;;;4.70;;
41141;SDS011;63666;52.284;20.890;2023-12-04T02:27:10;6.50;;;4.90;;
41141;SDS011;63666;52.284;20.890;2023-12-04T02:29:55;6.50;;;4.70;;
41141;SDS011;63666;52.284;20.890;2023-12-04T02:32:39;6.20;;;4.70;;
41141;SDS011;63666;52.284;20.890;2023-12-04T02:35:29;6.60;;;4.70;;
41141;SDS011;63666;52.284;20.890;2023-12-04T02:38:14;6.10;;;4.60;;
41141;SDS011;63666;52.284;20.890;2023-12-04T02:40:58;6.50;;;4.70;;
41141;SDS011;63666;52.284;20.890;2023-12-04T02:43:39;6.60;;;5.00;;
41141;SDS011;63666;52.284;20.890;2023-12-04T02:46:20;6.40;;;4.70;;
41141;SDS011;63666;52.284;20.890;2023-12-04T02:48:59;6.40;;;4.60;;
41141;SDS011;63666;52.284;20.890;2023-12-04T02:51:41;6.30;;;4.80;;
41141;SDS011;63666;52.284;20.890;2023-12-04T02:54:24;5.80;;;4.50;;
41141;SDS011;63666;52.284;20.890;2023-12-04T02:57:01;6.20;;;4.50;;
41141;SDS011;63666;52.284;20.890;2023-12-04T02:59:40;6.50;;;4.70;;
41141;SDS011;63666;52.284;20.890;2023-12-04T03:02:21;6.20;;;4.60;;
41141;SDS011;63666;52.284;20.890;2023-12-04T03:05:03;6.00;;;4.70;;
41141;SDS011;63666;52.284;20.890;2023-12-04T03:07:42;5.80;;;4.40;;
41141;SDS011;63666;52.284;20.890;2023-12-04T03:10:22;6.20;;;4.60;;
41141;SDS011;63666;52.284;20.890;2023-12-04T03:13:01;5.60;;;4.10;;
41141;SDS011;63666;52.284;20.890;2023-12-04T03:15:41;6.10;;;4.20;;
41141;SDS011;63666;52.284;20.890;2023-12-04T03:18:21;6.20;;;4.60;;
41141;SDS011;63666;52.284;20.890;2023-12-04T03:21:04;6.00;;;4.50;;
41141;SDS011;63666;52.284;20.890;2023-12-04T03:23:41;6.00;;;4.10;;
41141;SDS011;63666;52.284;20.890;2023-12-04T03:26:22;6.00;;;4.50;;
41141;SDS011;63666;52.284;20.890;2023-12-04T03:29:04;5.90;;;4.10;;
41141;SDS011;63666;52.284;20.890;2023-12-04T03:31:42;6.00;;;4.50;;
41141;SDS011;63666;52.284;20.890;2023-12-04T03:34:19;5.80;;;4.00;;
41141;SDS011;63666;52.284;20.890;2023-12-04T03:36:57;5.90;;;4.10;;
41141;SDS011;63666;52.284;20.890;2023-12-04T03:39:42;5.70;;;4.20;;
41141;SDS011;63666;52.284;20.890;2023-12-04T03:42:25;6.00;;;4.50;;
41141;SDS011;63666;52.284;20.890;2023-12-04T03:45:06;5.70;;;4.20;;
41141;SDS011;63666;52.284;20.890;2023-12-04T03:47:45;6.00;;;4.40;;
41141;SDS011;63666;52.284;20.890;2023-12-04T03:50:26;6.60;;;4.10;;
41141;SDS011;63666;52.284;20.890;2023-12-04T03:53:04;5.90;;;4.30;;
41141;SDS011;63666;52.284;20.890;2023-12-04T03:55:43;6.20;;;4.30;;
41141;SDS011;63666;52.284;20.890;2023-12-04T03:58:25;5.90;;;4.30;;
41141;SDS011;63666;52.284;20.890;2023-12-04T04:01:05;5.60;;;4.30;;
41141;SDS011;63666;52.284;20.890;2023-12-04T04:03:44;6.20;;;4.00;;
41141;SDS011;63666;52.284;20.890;2023-12-04T04:06:22;6.30;;;4.10;;
41141;SDS011;63666;52.284;20.890;2023-12-04T04:09:07;6.30;;;4.10;;
41141;SDS011;63666;52.284;20.890;2023-12-04T04:11:48;5.90;;;4.20;;
41141;SDS011;63666;52.284;20.890;2023-12-04T04:14:28;6.50;;;4.30;;
41141;SDS011;63666;52.284;20.890;2023-12-04T04:17:10;6.00;;;4.10;;
41141;SDS011;63666;52.284;20.890;2023-12-04T04:19:51;6.70;;;4.10;;
41141;SDS011;63666;52.284;20.890;2023-12-04T04:22:31;6.30;;;4.40;;
41141;SDS011;63666;52.284;20.890;2023-12-04T04:25:13;6.80;;;4.50;;
41141;SDS011;63666;52.284;20.890;2023-12-04T04:27:51;7.00;;;4.40;;
41141;SDS011;63666;52.284;20.890;2023-12-04T04:30:30;6.40;;;4.20;;
41141;SDS011;63666;52.284;20.890;2023-12-04T04:33:15;5.80;;;4.20;;
41141;SDS011;63666;52.284;20.890;2023-12-04T04:35:52;6.40;;;4.00;;
41141;SDS011;63666;52.284;20.890;2023-12-04T04:38:29;7.00;;;4.40;;
41141;SDS011;63666;52.284;20.890;2023-12-04T04:41:14;6.80;;;4.60;;
41141;SDS011;63666;52.284;20.890;2023-12-04T04:43:51;7.20;;;4.50;;
41141;SDS011;63666;52.284;20.890;2023-12-04T04:46:31;6.70;;;4.50;;
41141;SDS011;63666;52.284;20.890;2023-12-04T04:49:10;7.40;;;4.50;;
41141;SDS011;63666;52.284;20.890;2023-12-04T04:51:48;6.80;;;4.30;;
41141;SDS011;63666;52.284;20.890;2023-12-04T04:54:30;6.60;;;4.50;;
41141;SDS011;63666;52.284;20.890;2023-12-04T04:57:10;6.80;;;4.10;;
41141;SDS011;63666;52.284;20.890;2023-12-04T04:59:50;6.10;;;4.10;;
41141;SDS011;63666;52.284;20.890;2023-12-04T05:02:33;6.00;;;4.40;;
41141;SDS011;63666;52.284;20.890;2023-12-04T05:05:13;7.10;;;4.30;;
41141;SDS011;63666;52.284;20.890;2023-12-04T05:07:53;7.60;;;4.20;;
41141;SDS011;63666;52.284;20.890;2023-12-04T05:10:32;6.80;;;4.30;;
41141;SDS011;63666;52.284;20.890;2023-12-04T05:13:16;6.00;;;4.30;;
41141;SDS011;63666;52.284;20.890;2023-12-04T05:15:58;5.70;;;4.10;;
41141;SDS011;63666;52.284;20.890;2023-12-04T05:18:42;5.70;;;4.10;;
41141;SDS011;63666;52.284;20.890;2023-12-04T05:21:23;6.40;;;4.40;;
41141;SDS011;63666;52.284;20.890;2023-12-04T05:24:07;6.00;;;4.20;;
41141;SDS011;63666;52.284;20.890;2023-12-04T05:26:46;5.70;;;4.20;;
41141;SDS011;63666;52.284;20.890;2023-12-04T05:29:30;6.90;;;4.40;;
41141;SDS011;63666;52.284;20.890;2023-12-04T05:32:13;6.50;;;4.50;;
41141;SDS011;63666;52.284;20.890;2023-12-04T05:34:58;6.40;;;4.80;;
41141;SDS011;63666;52.284;20.890;2023-12-04T05:37:38;6.50;;;4.70;;
41141;SDS011;63666;52.284;20.890;2023-12-04T05:40:18;6.90;;;4.90;;
41141;SDS011;63666;52.284;20.890;2023-12-04T05:42:55;7.70;;;5.20;;
41141;SDS011;63666;52.284;20.890;2023-12-04T05:45:36;7.40;;;5.30;;
41141;SDS011;63666;52.284;20.890;2023-12-04T05:48:14;7.60;;;5.30;;
41141;SDS011;63666;52.284;20.890;2023-12-04T05:50:52;7.10;;;5.00;;
41141;SDS011;63666;52.284;20.890;2023-12-04T05:53:33;7.50;;;5.10;;
41141;SDS011;63666;52.284;20.890;2023-12-04T05:56:13;7.20;;;4.80;;
41141;SDS011;63666;52.284;20.890;2023-12-04T05:58:51;6.90;;;4.80;;
41141;SDS011;63666;52.284;20.890;2023-12-04T06:01:32;8.00;;;5.30;;
41141;SDS011;63666;52.284;20.890;2023-12-04T06:04:12;7.30;;;5.00;;
41141;SDS011;63666;52.284;20.890;2023-12-04T06:06:53;7.60;;;4.50;;
41141;SDS011;63666;52.284;20.890;2023-12-04T06:09:36;7.30;;;5.10;;
41141;SDS011;63666;52.284;20.890;2023-12-04T06:12:15;7.40;;;5.00;;
41141;SDS011;63666;52.284;20.890;2023-12-04T06:14:55;7.80;;;5.00;;
41141;SDS011;63666;52.284;20.890;2023-12-04T06:17:36;8.40;;;4.90;;
41141;SDS011;63666;52.284;20.890;2023-12-04T06:20:18;7.90;;;4.90;;
41141;SDS011;63666;52.284;20.890;2023-12-04T06:23:01;6.90;;;5.00;;
41141;SDS011;63666;52.284;20.890;2023-12-04T06:25:39;7.10;;;4.90;;
41141;SDS011;63666;52.284;20.890;2023-12-04T06:28:20;7.40;;;5.20;;
41141;SDS011;63666;52.284;20.890;2023-12-04T06:30:59;6.70;;;4.60;;
41141;SDS011;63666;52.284;20.890;2023-12-04T06:33:38;6.90;;;4.90;;
41141;SDS011;63666;52.284;20.890;2023-12-04T06:36:16;7.00;;;4.90;;
41141;SDS011;63666;52.284;20.890;2023-12-04T06:38:55;7.20;;;4.90;;
41141;SDS011;63666;52.284;20.890;2023-12-04T06:41:34;7.40;;;5.20;;
41141;SDS011;63666;52.284;20.890;2023-12-04T06:44:13;7.30;;;4.80;;
41141;SDS011;63666;52.284;20.890;2023-12-04T06:46:53;7.00;;;4.90;;
41141;SDS011;63666;52.284;20.890;2023-12-04T06:49:33;7.10;;;4.90;;
41141;SDS011;63666;52.284;20.890;2023-12-04T06:52:13;7.40;;;5.10;;
41141;SDS011;63666;52.284;20.890;2023-12-04T06:54:58;6.40;;;4.80;;
41141;SDS011;63666;52.284;20.890;2023-12-04T06:57:46;6.70;;;4.80;;
41141;SDS011;63666;52.284;20.890;2023-12-04T07:00:30;7.00;;;4.90;;
41141;SDS011;63666;52.284;20.890;2023-12-04T07:03:08;6.30;;;4.70;;
41141;SDS011;63666;52.284;20.890;2023-12-04T07:05:46;6.80;;;4.70;;
41141;SDS011;63666;52.284;20.890;2023-12-04T07:08:26;6.20;;;5.00;;
41141;SDS011;63666;52.284;20.890;2023-12-04T07:11:05;6.90;;;4.80;;
41141;SDS011;63666;52.284;20.890;2023-12-04T07:13:43;6.40;;;4.50;;
41141;SDS011;63666;52.284;20.890;2023-12-04T07:16:23;6.40;;;4.70;;
41141;SDS011;63666;52.284;20.890;2023-12-04T07:19:07;7.30;;;5.10;;
41141;SDS011;63666;52.284;20.890;2023-12-04T07:21:45;6.30;;;4.90;;
41141;SDS011;63666;52.284;20.890;2023-12-04T07:24:24;6.80;;;4.70;;
41141;SDS011;63666;52.284;20.890;2023-12-04T07:27:05;6.40;;;4.90;;
41141;SDS011;63666;52.284;20.890;2023-12-04T07:29:43;6.90;;;5.00;;
41141;SDS011;63666;52.284;20.890;2023-12-04T07:32:21;6.80;;;5.10;;
41141;SDS011;63666;52.284;20.890;2023-12-04T07:34:59;7.20;;;5.00;;
41141;SDS011;63666;52.284;20.890;2023-12-04T07:37:39;6.40;;;4.60;;
41141;SDS011;63666;52.284;20.890;2023-12-04T07:40:30;6.80;;;5.20;;
41141;SDS011;63666;52.284;20.890;2023-12-04T07:43:18;7.30;;;5.00;;
41141;SDS011;63666;52.284;20.890;2023-12-04T07:46:00;6.70;;;4.90;;
41141;SDS011;63666;52.284;20.890;2023-12-04T07:48:39;6.60;;;5.20;;
41141;SDS011;63666;52.284;20.890;2023-12-04T07:51:21;6.90;;;5.50;;
41141;SDS011;63666;52.284;20.890;2023-12-04T07:54:01;6.20;;;4.90;;
41141;SDS011;63666;52.284;20.890;2023-12-04T07:56:40;6.50;;;4.80;;
41141;SDS011;63666;52.284;20.890;2023-12-04T07:59:23;7.30;;;5.00;;
41141;SDS011;63666;52.284;20.890;2023-12-04T08:04:47;7.20;;;5.00;;
41141;SDS011;63666;52.284;20.890;2023-12-04T08:07:27;6.40;;;5.00;;
41141;SDS011;63666;52.284;20.890;2023-12-04T08:10:06;7.00;;;5.40;;
41141;SDS011;63666;52.284;20.890;2023-12-04T08:12:45;6.30;;;5.20;;
41141;SDS011;63666;52.284;20.890;2023-12-04T08:15:23;7.30;;;5.60;;
41141;SDS011;63666;52.284;20.890;2023-12-04T08:18:01;7.00;;;5.50;;
41141;SDS011;63666;52.284;20.890;2023-12-04T08:20:40;6.70;;;5.10;;
41141;SDS011;63666;52.284;20.890;2023-12-04T08:23:21;7.10;;;5.20;;
41141;SDS011;63666;52.284;20.890;2023-12-04T08:25:58;7.20;;;5.50;;
41141;SDS011;63666;52.284;20.890;2023-12-04T08:28:44;6.70;;;5.00;;
41141;SDS011;63666;52.284;20.890;2023-12-04T08:31:25;7.10;;;5.30;;
41141;SDS011;63666;52.284;20.890;2023-12-04T08:34:09;6.30;;;5.20;;
41141;SDS011;63666;52.284;20.890;2023-12-04T08:36:46;7.50;;;5.80;;
41141;SDS011;63666;52.284;20.890;2023-12-04T08:39:28;7.20;;;5.10;;
41141;SDS011;63666;52.284;20.890;2023-12-04T08:42:07;7.20;;;5.30;;
41141;SDS011;63666;52.284;20.890;2023-12-04T08:44:57;7.20;;;5.50;;
41141;SDS011;63666;52.284;20.890;2023-12-04T08:47:36;7.10;;;5.50;;
41141;SDS011;63666;52.284;20.890;2023-12-04T08:50:24;7.30;;;5.30;;
41141;SDS011;63666;52.284;20.890;2023-12-04T08:53:02;7.30;;;5.60;;
41141;SDS011;63666;52.284;20.890;2023-12-04T08:55:46;7.10;;;5.60;;
41141;SDS011;63666;52.284;20.890;2023-12-04T08:58:34;8.40;;;5.70;;
41141;SDS011;63666;52.284;20.890;2023-12-04T09:01:15;7.20;;;5.80;;
41141;SDS011;63666;52.284;20.890;2023-12-04T09:03:53;7.20;;;5.60;;
41141;SDS011;63666;52.284;20.890;2023-12-04T09:06:33;8.30;;;5.80;;
41141;SDS011;63666;52.284;20.890;2023-12-04T09:09:15;7.40;;;5.80;;
41141;SDS011;63666;52.284;20.890;2023-12-04T09:11:57;7.30;;;5.50;;
41141;SDS011;63666;52.284;20.890;2023-12-04T09:14:33;7.30;;;5.70;;
41141;SDS011;63666;52.284;20.890;2023-12-04T09:17:11;7.20;;;5.40;;
41141;SDS011;63666;52.284;20.890;2023-12-04T09:19:52;7.20;;;5.40;;
41141;SDS011;63666;52.284;20.890;2023-12-04T09:22:30;7.10;;;5.60;;
41141;SDS011;63666;52.284;20.890;2023-12-04T09:25:29;7.40;;;5.50;;
41141;SDS011;63666;52.284;20.890;2023-12-04T09:28:07;7.80;;;5.80;;
41141;SDS011;63666;52.284;20.890;2023-12-04T09:30:45;8.60;;;5.60;;
41141;SDS011;63666;52.284;20.890;2023-12-04T09:33:29;8.40;;;6.70;;
41141;SDS011;63666;52.284;20.890;2023-12-04T09:36:07;8.80;;;6.40;;
41141;SDS011;63666;52.284;20.890;2023-12-04T09:38:50;8.40;;;6.40;;
41141;SDS011;63666;52.284;20.890;2023-12-04T09:41:36;9.30;;;6.30;;
41141;SDS011;63666;52.284;20.890;2023-12-04T09:44:19;8.30;;;6.30;;
41141;SDS011;63666;52.284;20.890;2023-12-04T09:47:00;9.60;;;6.80;;
41141;SDS011;63666;52.284;20.890;2023-12-04T09:49:42;9.20;;;6.30;;
41141;SDS011;63666;52.284;20.890;2023-12-04T09:52:22;8.40;;;6.20;;
41141;SDS011;63666;52.284;20.890;2023-12-04T09:55:00;8.70;;;6.30;;
41141;SDS011;63666;52.284;20.890;2023-12-04T09:57:41;7.40;;;6.00;;
41141;SDS011;63666;52.284;20.890;2023-12-04T10:00:25;7.60;;;6.10;;
41141;SDS011;63666;52.284;20.890;2023-12-04T10:06:09;7.50;;;6.30;;
41141;SDS011;63666;52.284;20.890;2023-12-04T10:08:50;7.90;;;5.90;;
41141;SDS011;63666;52.284;20.890;2023-12-04T10:11:31;7.40;;;5.70;;
41141;SDS011;63666;52.284;20.890;2023-12-04T10:14:17;7.30;;;6.00;;
41141;SDS011;63666;52.284;20.890;2023-12-04T10:17:01;7.80;;;6.10;;
41141;SDS011;63666;52.284;20.890;2023-12-04T10:20:05;8.30;;;6.10;;
41141;SDS011;63666;52.284;20.890;2023-12-04T10:22:56;8.10;;;6.10;;
41141;SDS011;63666;52.284;20.890;2023-12-04T10:25:37;8.30;;;5.90;;
41141;SDS011;63666;52.284;20.890;2023-12-04T10:28:14;7.80;;;6.00;;
41141;SDS011;63666;52.284;20.890;2023-12-04T10:30:54;7.00;;;5.80;;
41141;SDS011;63666;52.284;20.890;2023-12-04T10:33:34;7.30;;;5.90;;
41141;SDS011;63666;52.284;20.890;2023-12-04T10:36:16;8.70;;;6.70;;
41141;SDS011;63666;52.284;20.890;2023-12-04T10:39:02;9.00;;;6.30;;
41141;SDS011;63666;52.284;20.890;2023-12-04T10:41:39;8.30;;;6.10;;
41141;SDS011;63666;52.284;20.890;2023-12-04T10:44:18;8.50;;;6.10;;
41141;SDS011;63666;52.284;20.890;2023-12-04T10:46:57;7.60;;;5.90;;
41141;SDS011;63666;52.284;20.890;2023-12-04T10:49:38;8.10;;;6.40;;
41141;SDS011;63666;52.284;20.890;2023-12-04T10:52:17;7.30;;;5.80;;
41141;SDS011;63666;52.284;20.890;2023-12-04T10:54:57;7.90;;;6.20;;
41141;SDS011;63666;52.284;20.890;2023-12-04T10:57:38;8.00;;;6.20;;
41141;SDS011;63666;52.284;20.890;2023-12-04T11:00:19;7.40;;;6.20;;
41141;SDS011;63666;52.284;20.890;2023-12-04T11:03:05;7.90;;;6.10;;
41141;SDS011;63666;52.284;20.890;2023-12-04T11:05:47;7.80;;;6.00;;
41141;SDS011;63666;52.284;20.890;2023-12-04T11:08:34;7.90;;;6.30;;
41141;SDS011;63666;52.284;20.890;2023-12-04T11:11:18;8.00;;;6.00;;
41141;SDS011;63666;52.284;20.890;2023-12-04T11:14:04;7.20;;;5.70;;
41141;SDS011;63666;52.284;20.890;2023-12-04T11:16:47;7.70;;;5.90;;
41141;SDS011;63666;52.284;20.890;2023-12-04T11:19:35;7.10;;;5.70;;
41141;SDS011;63666;52.284;20.890;2023-12-04T11:22:20;7.80;;;6.00;;
41141;SDS011;63666;52.284;20.890;2023-12-04T11:25:01;7.50;;;6.20;;
41141;SDS011;63666;52.284;20.890;2023-12-04T11:27:39;7.80;;;5.90;;
41141;SDS011;63666;52.284;20.890;2023-12-04T11:30:19;8.00;;;6.20;;
41141;SDS011;63666;52.284;20.890;2023-12-04T11:33:01;7.10;;;5.80;;
41141;SDS011;63666;52.284;20.890;2023-12-04T11:35:40;7.30;;;5.90;;
41141;SDS011;63666;52.284;20.890;2023-12-04T11:38:19;7.70;;;5.70;;
41141;SDS011;63666;52.284;20.890;2023-12-04T11:41:00;7.40;;;6.00;;
41141;SDS011;63666;52.284;20.890;2023-12-04T11:43:37;7.00;;;5.60;;
41141;SDS011;63666;52.284;20.890;2023-12-04T11:46:26;7.40;;;5.50;;
41141;SDS011;63666;52.284;20.890;2023-12-04T11:49:30;7.50;;;5.80;;
41141;SDS011;63666;52.284;20.890;2023-12-04T11:52:13;7.40;;;5.70;;
41141;SDS011;63666;52.284;20.890;2023-12-04T11:55:00;7.10;;;5.70;;
41141;SDS011;63666;52.284;20.890;2023-12-04T11:57:43;7.20;;;5.70;;
41141;SDS011;63666;52.284;20.890;2023-12-04T12:00:25;7.80;;;5.80;;
41141;SDS011;63666;52.284;20.890;2023-12-04T12:03:07;7.60;;;6.00;;
41141;SDS011;63666;52.284;20.890;2023-12-04T12:05:59;7.10;;;5.50;;
41141;SDS011;63666;52.284;20.890;2023-12-04T12:08:40;7.70;;;5.80;;
41141;SDS011;63666;52.284;20.890;2023-12-04T12:11:20;7.10;;;5.50;;
41141;SDS011;63666;52.284;20.890;2023-12-04T12:14:00;7.50;;;5.80;;
41141;SDS011;63666;52.284;20.890;2023-12-04T12:16:44;8.00;;;5.70;;
41141;SDS011;63666;52.284;20.890;2023-12-04T12:19:22;8.10;;;5.80;;
41141;SDS011;63666;52.284;20.890;2023-12-04T12:22:00;7.50;;;5.60;;
41141;SDS011;63666;52.284;20.890;2023-12-04T12:24:38;7.70;;;5.80;;
41141;SDS011;63666;52.284;20.890;2023-12-04T12:27:17;7.40;;;5.90;;
41141;SDS011;63666;52.284;20.890;2023-12-04T12:29:56;7.70;;;5.70;;
41141;SDS011;63666;52.284;20.890;2023-12-04T12:32:33;7.40;;;5.60;;
41141;SDS011;63666;52.284;20.890;2023-12-04T12:35:12;8.00;;;5.90;;
41141;SDS011;63666;52.284;20.890;2023-12-04T12:37:56;8.80;;;6.20;;
41141;SDS011;63666;52.284;20.890;2023-12-04T12:40:35;7.40;;;5.30;;
41141;SDS011;63666;52.284;20.890;2023-12-04T12:43:13;7.30;;;5.70;;
41141;SDS011;63666;52.284;20.890;2023-12-04T12:45:51;7.40;;;5.40;;
41141;SDS011;63666;52.284;20.890;2023-12-04T12:48:30;7.10;;;5.40;;
41141;SDS011;63666;52.284;20.890;2023-12-04T12:51:09;7.40;;;5.80;;
41141;SDS011;63666;52.284;20.890;2023-12-04T12:53:46;7.30;;;5.60;;
41141;SDS011;63666;52.284;20.890;2023-12-04T12:56:30;8.00;;;5.80;;
41141;SDS011;63666;52.284;20.890;2023-12-04T12:59:14;7.40;;;5.70;;
41141;SDS011;63666;52.284;20.890;2023-12-04T13:01:51;8.40;;;5.70;;
41141;SDS011;63666;52.284;20.890;2023-12-04T13:04:36;7.40;;;5.70;;
41141;SDS011;63666;52.284;20.890;2023-12-04T13:07:19;8.20;;;5.80;;
41141;SDS011;63666;52.284;20.890;2023-12-04T13:09:59;8.50;;;5.90;;
41141;SDS011;63666;52.284;20.890;2023-12-04T13:12:42;8.00;;;5.80;;
41141;SDS011;63666;52.284;20.890;2023-12-04T13:15:21;7.20;;;5.40;;
41141;SDS011;63666;52.284;20.890;2023-12-04T13:17:58;7.90;;;6.00;;
41141;SDS011;63666;52.284;20.890;2023-12-04T13:20:38;7.50;;;5.60;;
41141;SDS011;63666;52.284;20.890;2023-12-04T13:23:17;7.70;;;5.70;;
41141;SDS011;63666;52.284;20.890;2023-12-04T13:26:01;7.70;;;5.50;;
41141;SDS011;63666;52.284;20.890;2023-12-04T13:28:44;7.40;;;5.70;;
41141;SDS011;63666;52.284;20.890;2023-12-04T13:31:28;7.70;;;5.40;;
41141;SDS011;63666;52.284;20.890;2023-12-04T13:34:07;7.40;;;5.60;;
41141;SDS011;63666;52.284;20.890;2023-12-04T13:36:46;7.60;;;5.20;;
41141;SDS011;63666;52.284;20.890;2023-12-04T13:39:25;7.30;;;5.60;;
41141;SDS011;63666;52.284;20.890;2023-12-04T13:42:22;7.30;;;5.60;;
41141;SDS011;63666;52.284;20.890;2023-12-04T13:45:18;7.30;;;5.20;;
41141;SDS011;63666;52.284;20.890;2023-12-04T13:47:59;7.30;;;5.40;;
41141;SDS011;63666;52.284;20.890;2023-12-04T13:50:41;7.40;;;5.60;;
41141;SDS011;63666;52.284;20.890;2023-12-04T13:53:20;6.70;;;5.30;;
41141;SDS011;63666;52.284;20.890;2023-12-04T13:56:04;7.50;;;5.50;;
41141;SDS011;63666;52.284;20.890;2023-12-04T13:59:00;7.30;;;5.40;;
41141;SDS011;63666;52.284;20.890;2023-12-04T14:01:40;7.40;;;5.40;;
41141;SDS011;63666;52.284;20.890;2023-12-04T14:04:19;7.50;;;5.50;;
41141;SDS011;63666;52.284;20.890;2023-12-04T14:07:03;7.40;;;5.30;;
41141;SDS011;63666;52.284;20.890;2023-12-04T14:09:44;7.80;;;5.90;;
41141;SDS011;63666;52.284;20.890;2023-12-04T14:12:23;7.50;;;6.00;;
41141;SDS011;63666;52.284;20.890;2023-12-04T14:15:04;7.70;;;6.00;;
41141;SDS011;63666;52.284;20.890;2023-12-04T14:17:44;7.80;;;5.80;;
41141;SDS011;63666;52.284;20.890;2023-12-04T14:20:28;9.40;;;6.20;;
41141;SDS011;63666;52.284;20.890;2023-12-04T14:23:13;9.50;;;6.50;;
41141;SDS011;63666;52.284;20.890;2023-12-04T14:25:54;9.00;;;6.20;;
41141;SDS011;63666;52.284;20.890;2023-12-04T14:28:36;7.90;;;6.00;;
41141;SDS011;63666;52.284;20.890;2023-12-04T14:31:16;8.40;;;6.20;;
41141;SDS011;63666;52.284;20.890;2023-12-04T14:33:53;8.30;;;6.40;;
41141;SDS011;63666;52.284;20.890;2023-12-04T14:36:30;7.60;;;5.90;;
41141;SDS011;63666;52.284;20.890;2023-12-04T14:39:07;8.30;;;6.10;;
41141;SDS011;63666;52.284;20.890;2023-12-04T14:41:46;8.60;;;6.80;;
41141;SDS011;63666;52.284;20.890;2023-12-04T14:44:23;9.70;;;6.20;;
41141;SDS011;63666;52.284;20.890;2023-12-04T14:47:02;8.20;;;6.40;;
41141;SDS011;63666;52.284;20.890;2023-12-04T14:49:43;9.00;;;6.80;;
41141;SDS011;63666;52.284;20.890;2023-12-04T14:52:24;9.00;;;6.70;;
41141;SDS011;63666;52.284;20.890;2023-12-04T14:55:02;9.30;;;6.90;;
41141;SDS011;63666;52.284;20.890;2023-12-04T14:58:19;9.50;;;6.70;;
41141;SDS011;63666;52.284;20.890;2023-12-04T15:01:36;9.20;;;7.30;;
41141;SDS011;63666;52.284;20.890;2023-12-04T15:04:30;11.10;;;7.70;;
41141;SDS011;63666;52.284;20.890;2023-12-04T15:07:21;10.50;;;7.50;;
41141;SDS011;63666;52.284;20.890;2023-12-04T15:10:18;10.70;;;7.20;;
41141;SDS011;63666;52.284;20.890;2023-12-04T15:13:17;12.80;;;7.80;;
41141;SDS011;63666;52.284;20.890;2023-12-04T15:16:10;10.20;;;8.10;;
41141;SDS011;63666;52.284;20.890;2023-12-04T15:19:16;10.90;;;8.00;;
41141;SDS011;63666;52.284;20.890;2023-12-04T15:22:12;10.00;;;7.70;;
41141;SDS011;63666;52.284;20.890;2023-12-04T15:24:48;10.70;;;8.10;;
41141;SDS011;63666;52.284;20.890;2023-12-04T15:27:27;10.40;;;8.10;;
41141;SDS011;63666;52.284;20.890;2023-12-04T15:30:06;11.80;;;8.10;;
41141;SDS011;63666;52.284;20.890;2023-12-04T15:32:45;10.20;;;7.90;;
41141;SDS011;63666;52.284;20.890;2023-12-04T15:35:24;11.10;;;7.80;;
41141;SDS011;63666;52.284;20.890;2023-12-04T15:38:01;11.30;;;8.20;;
41141;SDS011;63666;52.284;20.890;2023-12-04T15:40:37;11.40;;;7.60;;
41141;SDS011;63666;52.284;20.890;2023-12-04T15:43:18;10.10;;;8.00;;
41141;SDS011;63666;52.284;20.890;2023-12-04T15:45:57;9.70;;;7.40;;
41141;SDS011;63666;52.284;20.890;2023-12-04T15:48:37;11.10;;;7.30;;
41141;SDS011;63666;52.284;20.890;2023-12-04T15:51:18;11.50;;;7.90;;
41141;SDS011;63666;52.284;20.890;2023-12-04T15:54:00;11.00;;;7.80;;
41141;SDS011;63666;52.284;20.890;2023-12-04T15:56:44;10.00;;;7.10;;
41141;SDS011;63666;52.284;20.890;2023-12-04T15:59:25;9.70;;;7.40;;
41141;SDS011;63666;52.284;20.890;2023-12-04T16:02:05;10.10;;;7.70;;
41141;SDS011;63666;52.284;20.890;2023-12-04T16:04:48;10.40;;;7.70;;
41141;SDS011;63666;52.284;20.890;2023-12-04T16:07:33;10.30;;;7.80;;
41141;SDS011;63666;52.284;20.890;2023-12-04T16:10:11;9.90;;;7.20;;
41141;SDS011;63666;52.284;20.890;2023-12-04T16:15:32;9.70;;;7.30;;